LAN1536 SCIP-SCEL
Flight info
| Callsign | LAN1536 |
|---|---|
| Flight time | N/A |
| Altitude | 33000 |
| Route | ASALA2J ASALA UL348 MUGUK/N0451F350 UL348 LOKOL DCT SIMOK SIMOK7B |
| Aircraft | A319/M-SDE3FGHIRWY/LB1 |
Departure
| Time | N/A |
|---|---|
| Airport | Mataveri International Airport (SCIP) |
Arrival
| Time | 2026-05-04 20:49 |
|---|---|
| Airport | Comodoro Arturo Merino Benítez International Airport (SCEL) |
| Time | Latitude | Longitude | Altitude | Speed | Heading |
|---|---|---|---|---|---|
| 2026-05-04 20:26 | -32.71210 | -72.87379 | 36019 ft | 507 kts | 54° |
| 2026-05-04 20:27 | -32.49712 | -72.41182 | 36026 ft | 508 kts | 54° |
| 2026-05-04 20:27 | -32.35956 | -72.11937 | 36007 ft | 508 kts | 54° |
| 2026-05-04 20:28 | -32.22112 | -71.82727 | 36011 ft | 509 kts | 54° |
| 2026-05-04 20:28 | -32.08193 | -71.53548 | 36010 ft | 510 kts | 54° |
| 2026-05-04 20:29 | -31.94661 | -71.25424 | 36009 ft | 510 kts | 54° |
| 2026-05-04 20:29 | -31.92907 | -71.21793 | 35755 ft | 512 kts | 54° |
| 2026-05-04 20:29 | -31.91120 | -71.18119 | 34937 ft | 522 kts | 54° |
| 2026-05-04 20:30 | -31.89325 | -71.14438 | 34229 ft | 526 kts | 54° |
| 2026-05-04 20:30 | -31.87507 | -71.10692 | 33329 ft | 526 kts | 55° |
| 2026-05-04 20:30 | -31.85933 | -71.06785 | 32325 ft | 535 kts | 69° |
| 2026-05-04 20:30 | -31.85188 | -71.02479 | 31333 ft | 541 kts | 85° |
| 2026-05-04 20:31 | -31.85437 | -70.98068 | 30427 ft | 541 kts | 103° |
| 2026-05-04 20:31 | -31.86636 | -70.93911 | 29461 ft | 535 kts | 120° |
| 2026-05-04 20:31 | -31.88678 | -70.90318 | 28578 ft | 522 kts | 136° |
| 2026-05-04 20:31 | -31.91318 | -70.87504 | 27807 ft | 504 kts | 152° |
| 2026-05-04 20:32 | -31.94335 | -70.85586 | 27077 ft | 483 kts | 166° |
| 2026-05-04 20:32 | -31.97506 | -70.84586 | 26324 ft | 463 kts | 180° |
| 2026-05-04 20:32 | -32.00660 | -70.84364 | 25530 ft | 451 kts | 186° |
| 2026-05-04 20:32 | -32.03790 | -70.84259 | 24801 ft | 446 kts | 186° |
| 2026-05-04 20:33 | -32.06870 | -70.84155 | 24120 ft | 440 kts | 185° |
| 2026-05-04 20:33 | -32.09911 | -70.84055 | 23363 ft | 435 kts | 185° |
| 2026-05-04 20:33 | -32.12907 | -70.83950 | 22714 ft | 425 kts | 185° |
| 2026-05-04 20:33 | -32.15823 | -70.83840 | 22180 ft | 414 kts | 185° |
| 2026-05-04 20:34 | -32.18677 | -70.83733 | 21655 ft | 407 kts | 185° |
| 2026-05-04 20:34 | -32.21472 | -70.83632 | 21191 ft | 404 kts | 185° |
| 2026-05-04 20:34 | -32.24251 | -70.83533 | 20957 ft | 393 kts | 185° |
| 2026-05-04 20:34 | -32.26976 | -70.83437 | 20341 ft | 390 kts | 184° |
| 2026-05-04 20:35 | -32.29684 | -70.83348 | 19785 ft | 388 kts | 184° |
| 2026-05-04 20:35 | -32.32369 | -70.83257 | 19174 ft | 384 kts | 184° |
| 2026-05-04 20:35 | -32.34985 | -70.83162 | 18686 ft | 377 kts | 183° |
| 2026-05-04 20:35 | -32.37585 | -70.83066 | 18197 ft | 372 kts | 183° |
| 2026-05-04 20:36 | -32.40181 | -70.82974 | 17690 ft | 370 kts | 183° |
| 2026-05-04 20:36 | -32.42749 | -70.82885 | 17196 ft | 369 kts | 183° |
| 2026-05-04 20:36 | -32.45319 | -70.82793 | 16704 ft | 367 kts | 182° |
| 2026-05-04 20:36 | -32.47865 | -70.82697 | 16207 ft | 365 kts | 182° |
| 2026-05-04 20:37 | -32.50364 | -70.82605 | 15733 ft | 362 kts | 182° |
| 2026-05-04 20:37 | -32.52870 | -70.82513 | 15241 ft | 359 kts | 182° |
| 2026-05-04 20:37 | -32.55367 | -70.82423 | 14756 ft | 358 kts | 182° |
| 2026-05-04 20:37 | -32.57865 | -70.82335 | 14265 ft | 359 kts | 182° |
| 2026-05-04 20:38 | -32.60365 | -70.82247 | 13850 ft | 358 kts | 182° |
| 2026-05-04 20:38 | -32.62811 | -70.82155 | 13715 ft | 343 kts | 181° |
| 2026-05-04 20:38 | -32.65153 | -70.82064 | 13574 ft | 328 kts | 182° |
| 2026-05-04 20:38 | -32.67352 | -70.81977 | 13439 ft | 312 kts | 182° |
| 2026-05-04 20:39 | -32.69487 | -70.81896 | 13145 ft | 304 kts | 182° |
| 2026-05-04 20:39 | -32.71596 | -70.81822 | 12911 ft | 303 kts | 182° |
| 2026-05-04 20:39 | -32.73717 | -70.81754 | 12656 ft | 305 kts | 182° |
| 2026-05-04 20:39 | -32.75842 | -70.81688 | 12411 ft | 306 kts | 182° |
| 2026-05-04 20:40 | -32.77974 | -70.81616 | 12160 ft | 306 kts | 182° |
| 2026-05-04 20:40 | -32.80105 | -70.81539 | 11956 ft | 306 kts | 181° |
| 2026-05-04 20:40 | -32.82225 | -70.81458 | 11832 ft | 303 kts | 181° |
| 2026-05-04 20:40 | -32.84325 | -70.81378 | 11700 ft | 301 kts | 181° |
| 2026-05-04 20:41 | -32.86431 | -70.81300 | 11304 ft | 305 kts | 181° |
| 2026-05-04 20:41 | -32.88517 | -70.81223 | 10927 ft | 302 kts | 181° |
| 2026-05-04 20:41 | -32.90628 | -70.81146 | 10547 ft | 301 kts | 181° |
| 2026-05-04 20:41 | -32.92706 | -70.81211 | 10176 ft | 296 kts | 190° |
| 2026-05-04 20:42 | -32.94748 | -70.81522 | 9796 ft | 295 kts | 190° |
| 2026-05-04 20:42 | -32.96778 | -70.81827 | 9395 ft | 293 kts | 189° |
| 2026-05-04 20:42 | -32.98799 | -70.82130 | 8990 ft | 292 kts | 189° |
| 2026-05-04 20:42 | -33.00820 | -70.82358 | 8562 ft | 293 kts | 180° |
| 2026-05-04 20:43 | -33.02835 | -70.82261 | 8081 ft | 294 kts | 178° |
| 2026-05-04 20:43 | -33.04888 | -70.82151 | 7593 ft | 295 kts | 178° |
| 2026-05-04 20:43 | -33.06947 | -70.82037 | 7116 ft | 296 kts | 177° |
| 2026-05-04 20:43 | -33.09003 | -70.81920 | 6641 ft | 296 kts | 177° |
| 2026-05-04 20:44 | -33.11074 | -70.81800 | 6139 ft | 296 kts | 177° |
| 2026-05-04 20:44 | -33.13109 | -70.81682 | 5813 ft | 289 kts | 177° |
| 2026-05-04 20:44 | -33.15069 | -70.81567 | 5547 ft | 281 kts | 177° |
| 2026-05-04 20:44 | -33.16997 | -70.81455 | 5302 ft | 273 kts | 177° |
| 2026-05-04 20:45 | -33.18872 | -70.81348 | 5087 ft | 264 kts | 177° |
| 2026-05-04 20:45 | -33.20704 | -70.81250 | 4743 ft | 262 kts | 178° |
| 2026-05-04 20:45 | -33.22515 | -70.81157 | 4389 ft | 259 kts | 178° |
| 2026-05-04 20:45 | -33.24282 | -70.81063 | 4050 ft | 247 kts | 178° |
| 2026-05-04 20:46 | -33.25948 | -70.80974 | 3739 ft | 231 kts | 178° |
| 2026-05-04 20:46 | -33.27485 | -70.80891 | 3446 ft | 216 kts | 178° |
| 2026-05-04 20:46 | -33.28937 | -70.80814 | 3224 ft | 201 kts | 178° |
| 2026-05-04 20:46 | -33.30306 | -70.80741 | 2914 ft | 193 kts | 177° |
| 2026-05-04 20:47 | -33.31610 | -70.80671 | 2658 ft | 181 kts | 176° |
| 2026-05-04 20:47 | -33.32811 | -70.80607 | 2441 ft | 162 kts | 176° |
| 2026-05-04 20:47 | -33.33894 | -70.80549 | 2226 ft | 151 kts | 176° |
| 2026-05-04 20:47 | -33.34920 | -70.80494 | 2035 ft | 143 kts | 176° |
| 2026-05-04 20:48 | -33.35902 | -70.80438 | 1850 ft | 140 kts | 176° |
| 2026-05-04 20:48 | -33.36864 | -70.80391 | 1681 ft | 137 kts | 175° |
| 2026-05-04 20:48 | -33.37771 | -70.80341 | 1574 ft | 117 kts | 176° |
| 2026-05-04 20:48 | -33.38469 | -70.80306 | 1573 ft | 81 kts | 178° |
| 2026-05-04 20:49 | -33.38949 | -70.80280 | 1574 ft | 59 kts | 177° |
| 2026-05-04 20:49 | -33.39306 | -70.80259 | 1572 ft | 44 kts | 177° |
| 2026-05-04 20:49 | -33.39491 | -70.80249 | 1571 ft | 37 kts | 177° |
| 2026-05-04 20:49 | -33.39816 | -70.80235 | 1572 ft | 17 kts | 178° |
| 2026-05-04 20:50 | -33.39939 | -70.80181 | 1572 ft | 22 kts | 148° |
| 2026-05-04 20:50 | -33.40043 | -70.80101 | 1569 ft | 17 kts | 143° |
| 2026-05-04 20:50 | -33.40107 | -70.80044 | 1568 ft | 16 kts | 145° |
| 2026-05-04 20:50 | -33.40157 | -70.79969 | 1566 ft | 13 kts | 92° |
| 2026-05-04 20:51 | -33.40106 | -70.79900 | 1565 ft | 13 kts | 353° |
| 2026-05-04 20:51 | -33.40003 | -70.79909 | 1565 ft | 16 kts | 356° |
| 2026-05-04 20:51 | -33.39895 | -70.79917 | 1565 ft | 14 kts | 356° |
| 2026-05-04 20:51 | -33.39837 | -70.79866 | 1565 ft | 14 kts | 95° |
| 2026-05-04 20:52 | -33.39844 | -70.79768 | 1565 ft | 8 kts | 86° |
| 2026-05-04 20:52 | -33.39793 | -70.79731 | 1565 ft | 10 kts | 357° |
| 2026-05-04 20:52 | -33.39752 | -70.79735 | 1565 ft | 1 kts | 357° |
| 2026-05-04 20:52 | -33.39740 | -70.79735 | 1565 ft | 0 kts | 357° |